Terminal Aerodrome Forecast
Issued by NWS

Home | Current Version | Previous Version | Text Only | Print | Product List | Glossary On
Versions: 1 2 3 4 5 6 7 8 9 10 11 12 13 14 15 16 17 18 19 20 21 22 23 24 25 26 27 28 29 30 31 32 33 34 35 36 37 38 39 40 41
000
FTUS45 KLKN 172123 AAB
TAFEKO
TAF AMD
KEKO 172123Z 1721/1818 VRB04KT P6SM OVC005
      TEMPO 1721/1724 2SM BR BKN003
     FM180000 VRB04KT P6SM BKN005
     FM180300 VRB03KT 3SM BR VV002
     FM180900 18003KT 1/2SM FG VV001=

USA.gov is the U.S. government's official web portal to all federal, state and local government web resources and services.